Time;durP1;ratioP1;P1;durP2;ratioP2;P2;SDS_P1;SDS_P2;PMS_P1;PMS_P2;Temp;Humidity;BMP_temperature;BMP_pressure;BME280_temperature;BME280_humidity;BME280_pressure;Samples;Min_cycle;Max_cycle;Signal;HPM_P1;HPM_P2
2022/05/15 07:06:02;;;;;;;;;;;;;;;21.65;62.14;97031.00;4226484;27;10184;-64
2022/05/15 07:08:08;;;;;;;;;;;;;;;21.85;61.91;97036.50;4229201;27;5124;-64
2022/05/15 07:10:11;;;;;;;;;;;;;;;22.03;61.45;97029.91;4228258;28;5783;-69
2022/05/15 07:12:15;;;;;;;;;;;;;;;22.16;61.34;97025.97;4248858;27;5742;-68
2022/05/15 07:14:18;;;;;;;;;;;;;;;22.25;61.18;97029.78;4249141;27;5598;-69
2022/05/15 07:16:21;;;;;;;;;;;;;;;22.31;61.06;97023.34;4237721;27;5648;-68
2022/05/15 07:18:24;;;;;;;;;;;;;;;22.38;60.80;97030.13;4229008;28;5715;-70
2022/05/15 07:20:27;;;;;;;;;;;;;;;22.44;60.78;97033.66;4230459;28;7697;-68
2022/05/15 07:22:31;;;;;;;;;;;;;;;22.50;60.58;97031.78;4229456;28;5700;-68
2022/05/15 07:24:34;;;;;;;;;;;;;;;22.54;60.42;97032.91;4220479;28;5806;-69
2022/05/15 07:26:41;;;;;;;;;;;;;;;22.55;60.11;97032.63;4223344;27;5624;-68
2022/05/15 07:28:50;;;;;;;;;;;;;;;22.57;60.47;97024.28;4231318;28;5707;-68
2022/05/15 07:30:53;;;;;;;;;;;;;;;22.56;60.36;97023.47;4219588;28;5680;-68
2022/05/15 07:32:56;;;;;;;;;;;;;;;22.58;60.24;97029.41;4228849;27;6076;-68
2022/05/15 07:34:59;;;;;;;;;;;;;;;22.59;59.81;97022.94;4228999;28;5617;-68
2022/05/15 07:37:02;;;;;;;;;;;;;;;22.59;59.75;97012.16;4225833;28;5616;-68
2022/05/15 07:39:07;;;;;;;;;;;;;;;22.62;59.35;97018.91;4227632;28;6294;-69
2022/05/15 07:41:10;;;;;;;;;;;;;;;22.63;59.52;97017.81;4228266;28;5637;-68
2022/05/15 07:43:14;;;;;;;;;;;;;;;22.66;59.58;97014.63;4225946;28;5616;-73
2022/05/15 07:45:20;;;;;;;;;;;;;;;22.70;59.03;97015.69;4229609;28;5673;-73
2022/05/15 07:47:23;;;;;;;;;;;;;;;22.73;59.30;97006.25;4226426;28;7250;-72
2022/05/15 07:49:25;;;;;;;;;;;;;;;22.74;58.77;97008.69;4207361;28;5643;-71
2022/05/15 07:51:31;;;;;;;;;;;;;;;22.73;59.02;97008.97;4229302;28;5621;-73
2022/05/15 07:53:34;;;;;;;;;;;;;;;22.74;58.63;97008.69;4228680;28;5803;-73
2022/05/15 07:55:39;;;;;;;;;;;;;;;22.76;58.68;97003.03;4212384;28;5803;-73
2022/05/15 07:57:41;;;;;;;;;;;;;;;22.77;58.87;97010.06;4230973;28;6539;-73
2022/05/15 07:59:45;;;;;;;;;;;;;;;22.76;58.75;97003.84;4230318;28;7655;-72
2022/05/15 08:01:48;;;;;;;;;;;;;;;22.77;58.67;97012.75;4231136;28;5629;-72
2022/05/15 08:03:50;;;;;;;;;;;;;;;22.78;58.25;97009.00;4230950;28;5640;-72
2022/05/15 08:08:13;;;;;;;;;;;;;;;22.79;58.46;96999.81;4201727;28;5731;-72
2022/05/15 08:10:16;;;;;;;;;;;;;;;22.80;58.38;96998.75;4202716;28;5727;-73
2022/05/15 08:12:20;;;;;;;;;;;;;;;22.81;57.94;96995.78;4202735;28;5698;-72
2022/05/15 08:14:23;;;;;;;;;;;;;;;22.82;58.05;96994.69;4207650;28;5696;-72
2022/05/15 08:16:26;;;;;;;;;;;;;;;22.84;57.72;96997.97;4219683;28;5620;-72
2022/05/15 08:25:32;;;;;;;;;;;;;;;22.82;57.14;97002.78;4219183;28;5691;-73
2022/05/15 08:27:36;;;;;;;;;;;;;;;22.84;57.12;96999.84;4219529;28;5650;-73
2022/05/15 08:29:40;;;;;;;;;;;;;;;22.84;57.19;97002.53;4201641;28;5643;-71
2022/05/15 08:31:42;;;;;;;;;;;;;;;22.87;57.03;97004.72;4219437;28;5612;-72
2022/05/15 08:33:48;;;;;;;;;;;;;;;22.87;57.25;96994.72;4219433;28;5609;-73
2022/05/15 08:35:51;;;;;;;;;;;;;;;22.88;57.33;97000.97;4219393;28;5645;-73
2022/05/15 08:37:54;;;;;;;;;;;;;;;22.91;57.11;96989.63;4219097;28;5703;-72
2022/05/15 08:39:57;;;;;;;;;;;;;;;22.93;56.66;96993.69;4216962;28;5693;-71
2022/05/15 08:42:14;;;;;;;;;;;;;;;22.95;56.86;96991.53;4202191;28;5628;-72
2022/05/15 08:44:21;;;;;;;;;;;;;;;22.97;56.61;96999.34;4202160;28;5746;-71
2022/05/15 08:46:32;;;;;;;;;;;;;;;23.00;56.37;96996.13;4202488;28;5734;-71
2022/05/15 08:48:38;;;;;;;;;;;;;;;23.02;56.68;96990.47;4202134;28;5631;-72
2022/05/15 08:50:48;;;;;;;;;;;;;;;23.02;56.11;96996.66;4184673;28;5727;-71
2022/05/15 08:52:54;;;;;;;;;;;;;;;23.03;56.29;96997.47;4206522;28;5638;-71
2022/05/15 08:55:08;;;;;;;;;;;;;;;23.06;55.75;97000.44;4218845;28;5720;-71
2022/05/15 08:57:21;;;;;;;;;;;;;;;23.06;56.13;96994.22;4209207;28;5100;-71
2022/05/15 08:59:28;;;;;;;;;;;;;;;23.06;55.67;96992.34;4215793;28;5680;-72
2022/05/15 09:01:33;;;;;;;;;;;;;;;23.08;55.53;96997.47;4216234;28;5664;-71
2022/05/15 09:03:38;;;;;;;;;;;;;;;23.09;55.68;97002.59;4217550;28;5628;-71
2022/05/15 09:05:45;;;;;;;;;;;;;;;23.09;55.25;96997.19;4217909;28;5601;-72
2022/05/15 09:07:58;;;;;;;;;;;;;;;23.10;54.91;97003.41;4217332;28;5672;-72
2022/05/15 09:10:12;;;;;;;;;;;;;;;23.09;55.35;97001.78;4218968;28;5617;-72
2022/05/15 09:12:18;;;;;;;;;;;;;;;23.11;55.33;97005.03;4218988;28;5727;-72
2022/05/15 09:14:35;;;;;;;;;;;;;;;23.13;55.12;97006.38;4219066;28;5926;-72
2022/05/15 09:16:43;;;;;;;;;;;;;;;23.15;55.00;97006.91;4219257;28;5682;-72
2022/05/15 09:18:49;;;;;;;;;;;;;;;23.17;54.52;96999.38;4218182;28;5676;-72
2022/05/15 09:21:02;;;;;;;;;;;;;;;23.18;54.39;97005.56;4219224;28;5621;-72
2022/05/15 09:23:17;;;;;;;;;;;;;;;23.20;54.27;97003.41;4219042;28;5119;-72
2022/05/15 09:25:22;;;;;;;;;;;;;;;23.21;54.10;96997.75;4218498;28;5684;-71
2022/05/15 09:27:28;;;;;;;;;;;;;;;23.23;54.49;97003.69;4219033;28;5613;-72
2022/05/15 09:29:35;;;;;;;;;;;;;;;23.25;53.99;96998.03;4218998;28;5624;-72
2022/05/15 09:31:42;;;;;;;;;;;;;;;23.27;54.04;96995.06;4218651;28;5636;-71
2022/05/15 09:33:51;;;;;;;;;;;;;;;23.27;53.86;96992.38;4218570;28;5648;-72
2022/05/15 09:36:20;;;;;;;;;;;;;;;23.27;53.48;96987.78;4218476;28;5715;-71
2022/05/15 09:38:29;;;;;;;;;;;;;;;23.28;53.68;96980.50;4218736;28;5632;-72
2022/05/15 09:40:40;;;;;;;;;;;;;;;23.33;53.85;96991.28;4218481;28;5628;-72
2022/05/15 09:45:27;;;;;;;;;;;;;;;23.35;53.08;96986.44;4218833;28;5708;-72
2022/05/15 09:47:33;;;;;;;;;;;;;;;23.35;53.39;96978.34;4218701;28;5604;-72
2022/05/15 09:49:35;;;;;;;;;;;;;;;23.35;52.77;96981.06;4218208;28;5772;-72
2022/05/15 09:51:44;;;;;;;;;;;;;;;23.33;52.58;96980.47;4218207;28;5762;-72
2022/05/15 09:53:53;;;;;;;;;;;;;;;23.34;52.56;96971.34;4218036;28;5604;-71
2022/05/15 09:56:01;;;;;;;;;;;;;;;23.33;52.66;96975.94;4217930;28;6313;-70
2022/05/15 09:58:16;;;;;;;;;;;;;;;23.32;52.13;96974.28;4217710;28;6494;-71
2022/05/15 10:00:22;;;;;;;;;;;;;;;23.30;52.47;96971.06;4218410;28;5747;-71
2022/05/15 10:02:38;;;;;;;;;;;;;;;23.34;51.89;96971.34;4218226;28;5665;-72
2022/05/15 10:04:41;;;;;;;;;;;;;;;23.38;51.98;96978.63;4217929;28;5617;-71
2022/05/15 10:06:51;;;;;;;;;;;;;;;23.40;52.01;96975.63;4217806;28;5814;-72
2022/05/15 10:09:16;;;;;;;;;;;;;;;23.43;51.74;96975.09;4217880;28;5612;-72
2022/05/15 10:11:20;;;;;;;;;;;;;;;23.48;51.47;96975.09;4217861;28;5683;-72
2022/05/15 10:13:30;;;;;;;;;;;;;;;23.51;51.24;96979.94;4199903;28;5707;-72
2022/05/15 10:15:40;;;;;;;;;;;;;;;23.54;51.31;96976.69;4217954;28;6396;-72
2022/05/15 10:17:51;;;;;;;;;;;;;;;23.56;51.40;96973.72;4218093;28;5632;-72
2022/05/15 10:19:57;;;;;;;;;;;;;;;23.58;51.11;96974.28;4218054;28;6600;-71
2022/05/15 10:22:11;;;;;;;;;;;;;;;23.60;51.03;96975.66;4218274;28;5630;-72
2022/05/15 10:24:17;;;;;;;;;;;;;;;23.60;50.59;96970.25;4217965;28;5780;-71
2022/05/15 10:26:25;;;;;;;;;;;;;;;23.62;50.88;96978.09;4217618;28;5609;-71
2022/05/15 10:28:39;;;;;;;;;;;;;;;23.65;50.63;96977.53;4217703;28;5695;-72
2022/05/15 10:30:51;;;;;;;;;;;;;;;23.67;50.19;96973.50;4217962;28;6306;-72
2022/05/15 10:33:02;;;;;;;;;;;;;;;23.69;50.40;96984.03;4218253;28;5716;-71
2022/05/15 10:35:06;;;;;;;;;;;;;;;23.68;50.30;96967.03;4217905;28;5624;-72
2022/05/15 10:37:31;;;;;;;;;;;;;;;23.69;49.86;96974.03;4217652;28;5703;-72
2022/05/15 10:39:47;;;;;;;;;;;;;;;23.71;49.74;96966.47;4217764;28;5719;-71
2022/05/15 10:41:58;;;;;;;;;;;;;;;23.76;49.92;96966.44;4217442;28;5632;-72
2022/05/15 10:44:16;;;;;;;;;;;;;;;23.81;49.87;96955.66;4217687;28;5625;-71
2022/05/15 10:46:30;;;;;;;;;;;;;;;23.84;49.41;96961.59;4217538;28;5668;-72
2022/05/15 10:48:46;;;;;;;;;;;;;;;23.84;49.51;96957.00;4217646;28;5608;-72
2022/05/15 10:50:56;;;;;;;;;;;;;;;23.86;49.80;96956.72;4217796;28;5633;-72
2022/05/15 10:58:40;;;;;;;;;;;;;;;23.97;49.11;96952.91;4152118;28;5777;-72
2022/05/15 11:00:51;;;;;;;;;;;;;;;23.98;49.11;96946.41;4149711;28;5704;-72
2022/05/15 11:03:15;;;;;;;;;;;;;;;24.00;49.10;96953.16;4149510;28;5790;-72
2022/05/15 11:05:26;;;;;;;;;;;;;;;24.04;48.79;96951.53;4165466;28;5781;-71
2022/05/15 11:07:36;;;;;;;;;;;;;;;24.06;48.49;96952.06;4144317;28;5743;-72
2022/05/15 11:09:53;;;;;;;;;;;;;;;24.09;48.75;96950.69;4149449;28;5715;-72
2022/05/15 11:12:27;;;;;;;;;;;;;;;24.11;48.48;96941.22;4149399;28;5701;-72
2022/05/15 11:14:41;;;;;;;;;;;;;;;24.14;48.36;96942.59;4149348;28;5779;-72
2022/05/15 11:16:52;;;;;;;;;;;;;;;24.17;48.41;96949.34;4149563;28;5799;-72
2022/05/15 11:19:19;;;;;;;;;;;;;;;24.19;48.18;96942.56;4149296;28;5111;-71
2022/05/15 11:21:30;;;;;;;;;;;;;;;24.22;48.29;96943.91;4149408;28;5752;-72
2022/05/15 11:23:42;;;;;;;;;;;;;;;24.25;48.19;96943.38;4149459;28;5711;-72
2022/05/15 11:25:53;;;;;;;;;;;;;;;24.26;48.12;96928.78;4149219;28;5784;-71
2022/05/15 11:28:00;;;;;;;;;;;;;;;24.28;47.96;96935.50;4149259;28;6409;-72
2022/05/15 11:30:08;;;;;;;;;;;;;;;24.32;47.89;96923.09;4149297;28;5711;-72
2022/05/15 11:32:40;;;;;;;;;;;;;;;24.36;47.80;96924.16;4191125;28;5628;-71
2022/05/15 11:35:07;;;;;;;;;;;;;;;24.39;47.54;96920.09;4200868;28;5731;-72
2022/05/15 11:37:42;;;;;;;;;;;;;;;24.41;47.68;96922.50;4200353;28;5651;-72
2022/05/15 11:39:59;;;;;;;;;;;;;;;24.45;47.41;96921.66;4200619;28;6428;-72
2022/05/15 11:42:14;;;;;;;;;;;;;;;24.46;46.99;96925.16;4202484;28;5628;-72
2022/05/15 11:44:37;;;;;;;;;;;;;;;24.48;47.32;96920.31;4203728;28;5616;-72
2022/05/15 11:47:20;;;;;;;;;;;;;;;24.53;46.99;96914.88;4203474;28;5637;-72
2022/05/15 11:49:28;;;;;;;;;;;;;;;24.54;47.04;96911.06;4203630;28;5579;-72
2022/05/15 11:51:34;;;;;;;;;;;;;;;24.55;47.15;96910.78;4203698;28;5636;-72
2022/05/15 11:53:48;;;;;;;;;;;;;;;24.58;46.66;96909.44;4203676;28;5638;-72
2022/05/15 11:55:52;;;;;;;;;;;;;;;24.59;46.97;96905.66;4203285;28;5691;-72
2022/05/15 11:58:17;;;;;;;;;;;;;;;24.61;46.92;96901.59;4212616;28;5624;-72
2022/05/15 12:00:26;;;;;;;;;;;;;;;24.64;46.48;96898.31;4220109;28;5613;-72
2022/05/15 12:02:49;;;;;;;;;;;;;;;24.66;46.59;96896.13;4220367;28;5632;-71
2022/05/15 12:05:01;;;;;;;;;;;;;;;24.68;46.31;96898.53;4204393;28;5731;-72
2022/05/15 12:07:30;;;;;;;;;;;;;;;24.70;46.37;96901.81;4204423;28;5758;-72
2022/05/15 12:09:51;;;;;;;;;;;;;;;24.73;46.43;96887.72;4219809;28;5713;-72
2022/05/15 12:11:57;;;;;;;;;;;;;;;24.75;46.24;96888.25;4219932;28;5739;-72
2022/05/15 12:14:32;;;;;;;;;;;;;;;24.78;46.31;96876.84;4220330;28;5625;-72
2022/05/15 12:16:53;;;;;;;;;;;;;;;24.80;46.06;96874.66;4219779;28;5731;-72
2022/05/15 12:19:05;;;;;;;;;;;;;;;24.83;46.36;96879.53;4220116;28;5624;-72
2022/05/15 12:21:09;;;;;;;;;;;;;;;24.84;46.14;96872.22;4219853;28;5685;-71
2022/05/15 12:23:16;;;;;;;;;;;;;;;24.87;46.20;96868.94;4219971;28;5679;-72
2022/05/15 12:25:25;;;;;;;;;;;;;;;24.89;46.02;96872.97;4219788;28;5609;-71
2022/05/15 12:27:29;;;;;;;;;;;;;;;24.91;45.55;96859.97;4219644;28;5616;-71
2022/05/15 12:29:42;;;;;;;;;;;;;;;24.93;45.60;96860.53;4219749;28;5656;-71
2022/05/15 12:31:46;;;;;;;;;;;;;;;24.96;45.62;96859.94;4219592;28;5613;-71
2022/05/15 12:33:57;;;;;;;;;;;;;;;25.02;45.66;96854.53;4219328;28;5624;-71
2022/05/15 12:36:00;;;;;;;;;;;;;;;25.07;45.60;96857.19;4219551;28;5636;-71
2022/05/15 12:38:06;;;;;;;;;;;;;;;25.10;45.46;96857.44;4219309;28;5609;-71
2022/05/15 12:40:12;;;;;;;;;;;;;;;25.13;45.80;96856.03;4219772;28;5633;-71
2022/05/15 12:42:36;;;;;;;;;;;;;;;25.16;45.55;96860.91;4219314;28;5616;-72
2022/05/15 12:44:40;;;;;;;;;;;;;;;25.19;45.62;96849.50;4219614;28;5645;-72
2022/05/15 12:46:54;;;;;;;;;;;;;;;25.23;45.23;96845.13;4219577;28;5620;-70
2022/05/15 12:48:57;;;;;;;;;;;;;;;25.27;45.28;96846.19;4201635;28;5648;-71
2022/05/15 12:51:03;;;;;;;;;;;;;;;25.30;45.09;96845.59;4219225;28;5616;-71
2022/05/15 12:53:06;;;;;;;;;;;;;;;25.33;45.21;96847.75;4219476;28;5617;-71
2022/05/15 12:55:12;;;;;;;;;;;;;;;25.34;45.17;96838.53;4219113;28;5616;-71
2022/05/15 12:57:18;;;;;;;;;;;;;;;25.36;44.92;96839.03;4197043;28;6481;-72
2022/05/15 12:59:21;;;;;;;;;;;;;;;25.38;45.07;96833.38;4202500;28;5683;-72
2022/05/15 13:01:28;;;;;;;;;;;;;;;25.39;44.84;96833.06;4202354;28;5849;-72
2022/05/15 13:03:33;;;;;;;;;;;;;;;25.40;44.90;96833.88;4206257;28;5722;-72
2022/05/15 13:05:39;;;;;;;;;;;;;;;25.38;45.04;96831.47;4218776;28;5723;-72
2022/05/15 13:07:42;;;;;;;;;;;;;;;25.40;45.14;96826.56;4212156;28;5808;-72
2022/05/15 13:09:57;;;;;;;;;;;;;;;25.39;44.64;96830.38;4202338;28;5786;-72
2022/05/15 13:12:02;;;;;;;;;;;;;;;25.40;44.99;96829.28;4201952;28;5695;-71
2022/05/15 13:14:13;;;;;;;;;;;;;;;25.41;44.73;96825.47;4202348;28;5066;-72
2022/05/15 13:16:20;;;;;;;;;;;;;;;25.42;44.88;96821.66;4202213;28;5699;-72
2022/05/15 13:18:25;;;;;;;;;;;;;;;25.42;44.73;96816.25;4202355;28;5702;-72
2022/05/15 13:20:30;;;;;;;;;;;;;;;25.44;44.90;96813.25;4202152;28;5691;-72
2022/05/15 13:22:34;;;;;;;;;;;;;;;25.46;44.91;96811.88;4202246;28;5718;-71
2022/05/15 13:24:37;;;;;;;;;;;;;;;25.47;44.83;96808.06;4200780;28;5637;-72
2022/05/15 13:26:43;;;;;;;;;;;;;;;25.48;44.89;96807.00;4201708;28;5695;-71
2022/05/15 13:28:46;;;;;;;;;;;;;;;25.50;44.81;96802.09;4202207;28;5706;-72
2022/05/15 13:30:51;;;;;;;;;;;;;;;25.48;44.34;96785.34;4201800;28;5690;-71
2022/05/15 13:33:05;;;;;;;;;;;;;;;25.49;44.38;96780.75;4201776;28;5798;-71
2022/05/15 13:35:10;;;;;;;;;;;;;;;25.51;44.75;96786.66;4201824;28;5698;-71
2022/05/15 13:37:28;;;;;;;;;;;;;;;25.51;44.59;96779.34;4201756;28;5863;-71
2022/05/15 13:44:28;;;;;;;;;;;;;;;25.53;44.57;96765.53;4166750;28;5709;-72
2022/05/15 13:46:35;;;;;;;;;;;;;;;25.54;44.54;96762.53;4166586;28;5788;-72
2022/05/15 13:48:57;;;;;;;;;;;;;;;25.55;44.37;96766.84;4166669;28;5702;-72
2022/05/15 13:51:03;;;;;;;;;;;;;;;25.58;44.73;96759.22;4167073;28;5879;-71
2022/05/15 13:53:26;;;;;;;;;;;;;;;25.59;44.48;96755.44;4166217;28;5999;-72
2022/05/15 13:55:40;;;;;;;;;;;;;;;25.61;44.54;96753.25;4165967;28;5705;-72
2022/05/15 13:57:54;;;;;;;;;;;;;;;25.62;44.59;96752.97;4166274;28;6027;-71
2022/05/15 14:00:10;;;;;;;;;;;;;;;25.65;44.66;96751.56;4166403;28;5778;-72
2022/05/15 14:02:19;;;;;;;;;;;;;;;25.65;44.55;96751.56;4166185;28;5776;-72
2022/05/15 14:04:25;;;;;;;;;;;;;;;25.67;44.67;96749.38;4165525;28;6208;-72
2022/05/15 14:06:32;;;;;;;;;;;;;;;25.69;44.57;96749.88;4166387;28;5777;-72
2022/05/15 14:08:35;;;;;;;;;;;;;;;25.70;44.59;96746.09;4166401;28;5788;-72
2022/05/15 14:10:38;;;;;;;;;;;;;;;25.71;44.51;96742.31;4149666;28;5844;-72
2022/05/15 14:12:44;;;;;;;;;;;;;;;25.74;44.85;96747.97;4166440;28;5710;-72
2022/05/15 14:14:52;;;;;;;;;;;;;;;25.77;44.43;96746.56;4166230;28;6561;-72
2022/05/15 14:17:03;;;;;;;;;;;;;;;25.80;44.64;96743.25;4166296;28;5780;-72
2022/05/15 14:19:14;;;;;;;;;;;;;;;25.83;44.87;96742.69;4195197;28;5521;-72
2022/05/15 14:21:20;;;;;;;;;;;;;;;25.83;44.64;96740.81;4200106;28;5791;-72
2022/05/15 14:23:25;;;;;;;;;;;;;;;25.85;44.92;96737.78;4218362;28;5766;-72
2022/05/15 14:25:29;;;;;;;;;;;;;;;25.85;45.03;96732.38;4199558;28;5628;-72
2022/05/15 14:27:32;;;;;;;;;;;;;;;25.85;44.99;96726.16;4217848;28;5524;-72
2022/05/15 14:29:35;;;;;;;;;;;;;;;25.86;45.17;96716.94;4218055;28;6224;-72
2022/05/15 14:31:40;;;;;;;;;;;;;;;25.86;45.54;96720.44;4218136;28;5561;-72
2022/05/15 14:33:45;;;;;;;;;;;;;;;25.87;45.54;96703.09;4217580;28;5522;-72
2022/05/15 14:35:55;;;;;;;;;;;;;;;25.89;45.25;96710.94;4218075;28;5513;-72
2022/05/15 14:37:58;;;;;;;;;;;;;;;25.89;45.47;96709.03;4199984;28;5644;-72
2022/05/15 14:40:10;;;;;;;;;;;;;;;25.91;45.28;96708.72;4217908;28;6229;-72
2022/05/15 14:42:13;;;;;;;;;;;;;;;25.90;45.40;96702.50;4217454;28;5750;-72
2022/05/15 14:44:16;;;;;;;;;;;;;;;25.92;45.23;96699.50;4216971;28;5525;-71
2022/05/15 14:46:22;;;;;;;;;;;;;;;25.92;45.31;96694.09;4217770;28;5554;-72
2022/05/15 14:48:28;;;;;;;;;;;;;;;25.94;45.15;96698.13;4217728;28;5543;-72
2022/05/15 14:50:32;;;;;;;;;;;;;;;25.97;45.11;96696.72;4217811;28;5532;-72
2022/05/15 14:52:36;;;;;;;;;;;;;;;25.98;45.37;96693.72;4217723;28;5656;-72
2022/05/15 14:54:39;;;;;;;;;;;;;;;25.99;45.16;96697.25;4217511;28;5530;-72
2022/05/15 14:56:42;;;;;;;;;;;;;;;26.01;45.19;96695.03;4217009;28;5533;-72
2022/05/15 14:58:51;;;;;;;;;;;;;;;26.02;45.15;96697.44;4217186;28;5696;-72
2022/05/15 15:00:55;;;;;;;;;;;;;;;26.02;45.04;96694.75;4217688;28;5696;-72
2022/05/15 15:02:58;;;;;;;;;;;;;;;26.03;45.09;96693.63;4217481;28;5621;-72
2022/05/15 15:05:02;;;;;;;;;;;;;;;26.05;44.85;96687.94;4216992;28;5612;-71
2022/05/15 15:07:05;;;;;;;;;;;;;;;26.04;44.99;96689.03;4217073;28;5816;-72
2022/05/15 15:09:10;;;;;;;;;;;;;;;26.03;44.93;96682.81;4217465;28;5613;-72
2022/05/15 15:11:16;;;;;;;;;;;;;;;26.04;44.64;96681.69;4216939;28;5312;-72
2022/05/15 15:13:19;;;;;;;;;;;;;;;26.05;44.48;96675.22;4217408;28;5617;-72
2022/05/15 15:15:22;;;;;;;;;;;;;;;26.06;44.70;96667.88;4217748;28;5609;-72
2022/05/15 15:17:25;;;;;;;;;;;;;;;26.10;44.45;96680.53;4220613;28;5677;-72
2022/05/15 15:19:29;;;;;;;;;;;;;;;26.13;44.53;96674.50;4220761;28;5645;-72
2022/05/15 15:21:33;;;;;;;;;;;;;;;26.18;44.53;96670.13;4220674;28;5060;-72
2022/05/15 15:23:39;;;;;;;;;;;;;;;26.19;44.25;96661.72;4220457;28;5617;-72
2022/05/15 15:25:43;;;;;;;;;;;;;;;26.23;44.46;96672.75;4208551;28;5886;-71
2022/05/15 15:27:46;;;;;;;;;;;;;;;26.24;44.57;96668.94;4221089;28;7741;-75
2022/05/15 15:29:49;;;;;;;;;;;;;;;26.29;44.15;96674.28;4232732;28;5781;-77
2022/05/15 15:31:52;;;;;;;;;;;;;;;26.32;44.41;96668.25;4221911;28;5640;-80
2022/05/15 15:33:56;;;;;;;;;;;;;;;26.34;44.06;96677.69;4218156;28;5684;-77
2022/05/15 15:35:59;;;;;;;;;;;;;;;26.38;43.93;96680.66;4213390;28;5613;-73
2022/05/15 15:38:18;;;;;;;;;;;;;;;26.39;44.14;96677.66;4198708;28;5639;-70
2022/05/15 15:40:22;;;;;;;;;;;;;;;26.42;44.12;96675.44;4218401;28;5624;-71
2022/05/15 15:42:27;;;;;;;;;;;;;;;26.43;43.71;96682.47;4224498;28;5696;-73
2022/05/15 15:44:30;;;;;;;;;;;;;;;26.44;44.07;96684.09;4229364;28;5687;-73
2022/05/15 15:46:33;;;;;;;;;;;;;;;26.45;44.04;96685.69;4236162;28;5598;-73
2022/05/15 15:48:37;;;;;;;;;;;;;;;26.46;44.12;96690.00;4218838;28;5628;-74
2022/05/15 15:50:41;;;;;;;;;;;;;;;26.45;43.87;96697.34;4201989;28;5647;-74
2022/05/15 15:52:47;;;;;;;;;;;;;;;26.45;43.87;96691.91;4220295;28;5678;-73
2022/05/15 15:54:50;;;;;;;;;;;;;;;26.43;43.91;96696.84;4218898;28;5624;-72
2022/05/15 15:56:55;;;;;;;;;;;;;;;26.44;43.87;96693.03;4200155;28;6476;-72
2022/05/15 15:59:00;;;;;;;;;;;;;;;26.44;43.96;96690.31;4197946;28;5738;-72
2022/05/15 16:01:03;;;;;;;;;;;;;;;26.43;43.96;96688.69;4215689;28;5693;-72
2022/05/15 16:03:08;;;;;;;;;;;;;;;26.45;43.64;96696.53;4211776;28;5758;-73
2022/05/15 16:05:14;;;;;;;;;;;;;;;26.43;43.93;96687.91;4223126;28;5087;-73
2022/05/15 16:07:17;;;;;;;;;;;;;;;26.43;43.67;96696.84;4219790;28;5799;-73
2022/05/15 16:09:20;;;;;;;;;;;;;;;26.44;43.58;96692.22;4219215;28;5732;-72
2022/05/15 16:11:23;;;;;;;;;;;;;;;26.45;43.73;96688.41;4209848;28;5880;-72
2022/05/15 16:13:26;;;;;;;;;;;;;;;26.45;43.45;96686.50;4202687;28;5738;-72
2022/05/15 16:15:30;;;;;;;;;;;;;;;26.45;43.30;96691.91;4210160;28;5806;-72
2022/05/15 16:17:33;;;;;;;;;;;;;;;26.45;43.29;96683.78;4202386;28;5715;-72
2022/05/15 16:19:36;;;;;;;;;;;;;;;26.46;43.67;96684.59;4206352;28;5782;-71
2022/05/15 16:21:49;;;;;;;;;;;;;;;26.43;43.56;96683.28;4214585;28;6235;-71
2022/05/15 16:23:54;;;;;;;;;;;;;;;26.43;43.45;96685.19;4214888;28;5760;-71
2022/05/15 16:26:00;;;;;;;;;;;;;;;26.44;43.53;96690.31;4207667;28;5712;-71
2022/05/15 16:28:04;;;;;;;;;;;;;;;26.47;43.62;96678.06;4207166;28;5730;-72
2022/05/15 16:30:09;;;;;;;;;;;;;;;26.47;43.65;96684.28;4200120;28;5734;-72
2022/05/15 16:32:15;;;;;;;;;;;;;;;26.45;43.60;96691.91;4200084;28;5805;-73
2022/05/15 16:34:19;;;;;;;;;;;;;;;26.43;43.54;96687.91;4205638;28;5754;-72
2022/05/15 16:36:23;;;;;;;;;;;;;;;26.40;43.94;96689.31;4211589;28;5746;-72
2022/05/15 16:38:26;;;;;;;;;;;;;;;26.36;44.21;96680.94;4215139;28;5720;-72
2022/05/15 16:40:29;;;;;;;;;;;;;;;26.35;43.96;96686.63;4199936;28;5802;-72
2022/05/15 16:42:36;;;;;;;;;;;;;;;26.33;44.13;96683.41;4207563;28;5713;-71
2022/05/15 16:44:39;;;;;;;;;;;;;;;26.34;44.31;96690.44;4208298;28;5763;-71
2022/05/15 16:46:42;;;;;;;;;;;;;;;26.33;43.91;96688.84;4212769;28;5857;-72
2022/05/15 16:48:47;;;;;;;;;;;;;;;26.33;44.12;96684.22;4211523;28;5906;-72
2022/05/15 16:50:49;;;;;;;;;;;;;;;26.34;43.96;96695.88;4203636;28;5845;-72
2022/05/15 16:52:53;;;;;;;;;;;;;;;26.35;43.94;96697.47;4203684;28;6500;-71
2022/05/15 16:54:56;;;;;;;;;;;;;;;26.36;43.67;96690.94;4210158;28;7037;-73
2022/05/15 16:56:59;;;;;;;;;;;;;;;26.36;43.96;96682.81;4204778;28;5840;-73
2022/05/15 16:59:02;;;;;;;;;;;;;;;26.34;43.74;96691.25;4213213;28;5751;-73
2022/05/15 17:01:05;;;;;;;;;;;;;;;26.35;43.76;96708.31;4207904;28;5723;-72
2022/05/15 17:03:08;;;;;;;;;;;;;;;26.34;43.77;96710.22;4204788;28;5727;-73
2022/05/15 17:05:15;;;;;;;;;;;;;;;26.34;44.04;96712.13;4177522;28;5866;-70
2022/05/15 17:07:18;;;;;;;;;;;;;;;26.34;44.13;96717.53;4179246;28;5827;-68
2022/05/15 17:09:21;;;;;;;;;;;;;;;26.34;43.80;96712.13;4179108;28;5814;-68
2022/05/15 17:11:24;;;;;;;;;;;;;;;26.35;44.11;96719.16;4179022;28;5823;-68
2022/05/15 17:13:28;;;;;;;;;;;;;;;26.34;43.76;96720.25;4179257;28;5882;-68
2022/05/15 17:15:32;;;;;;;;;;;;;;;26.33;43.75;96724.06;4179593;28;5785;-69
2022/05/15 17:17:35;;;;;;;;;;;;;;;26.32;43.62;96728.69;4176692;28;5540;-70
2022/05/15 17:19:38;;;;;;;;;;;;;;;26.32;43.52;96727.88;4180415;28;5827;-78
2022/05/15 17:21:43;;;;;;;;;;;;;;;26.29;43.55;96742.84;4181810;28;5811;-66
2022/05/15 17:23:46;;;;;;;;;;;;;;;26.28;43.21;96735.81;4177557;28;5820;-69
2022/05/15 17:25:49;;;;;;;;;;;;;;;26.26;43.14;96739.88;4180394;28;5907;-69
2022/05/15 17:27:52;;;;;;;;;;;;;;;26.20;43.11;96739.19;4179214;28;5123;-69
2022/05/15 17:34:39;;;;;;;;;;;;;;;26.02;42.29;96756.22;4175335;28;5124;-80
2022/05/15 17:36:47;;;;;;;;;;;;;;;26.00;42.33;96744.88;4180118;28;5832;-79
2022/05/15 17:38:50;;;;;;;;;;;;;;;25.96;42.52;96754.72;4176316;28;5892;-80
2022/05/15 17:40:53;;;;;;;;;;;;;;;25.92;42.17;96753.66;4176423;28;5790;-72
2022/05/15 17:42:57;;;;;;;;;;;;;;;25.91;42.12;96752.84;4181863;28;5828;-71
2022/05/15 17:45:00;;;;;;;;;;;;;;;25.91;42.08;96758.28;4178612;28;5885;-73
2022/05/15 17:47:09;;;;;;;;;;;;;;;25.91;42.23;96762.88;4180988;28;5874;-72
2022/05/15 17:49:12;;;;;;;;;;;;;;;25.88;41.87;96761.56;4180862;28;6385;-70
2022/05/15 17:51:15;;;;;;;;;;;;;;;25.87;42.20;96759.97;4179306;28;5935;-71
2022/05/15 17:53:20;;;;;;;;;;;;;;;25.87;42.01;96759.16;4181768;28;5811;-69
2022/05/15 17:55:23;;;;;;;;;;;;;;;25.86;41.78;96769.19;4179865;28;6676;-67
2022/05/15 17:57:27;;;;;;;;;;;;;;;25.82;42.23;96765.44;4180181;28;5947;-67
2022/05/15 17:59:30;;;;;;;;;;;;;;;25.79;42.28;96776.84;4178528;28;5839;-71
2022/05/15 18:01:33;;;;;;;;;;;;;;;25.74;42.08;96771.53;4179958;28;5942;-73
2022/05/15 18:03:38;;;;;;;;;;;;;;;25.68;42.26;96773.44;4172611;28;5938;-72
2022/05/15 18:05:42;;;;;;;;;;;;;;;25.65;42.11;96776.75;4205906;28;5731;-75
2022/05/15 18:07:49;;;;;;;;;;;;;;;25.59;42.21;96777.06;4212602;28;5780;-75
2022/05/15 18:09:54;;;;;;;;;;;;;;;25.53;42.44;96787.97;4213572;28;5685;-83
2022/05/15 18:11:56;;;;;;;;;;;;;;;25.51;42.78;96776.66;4208910;28;5782;-75
2022/05/15 18:14:01;;;;;;;;;;;;;;;25.49;42.78;96773.44;4211583;28;7725;-70
2022/05/15 18:16:04;;;;;;;;;;;;;;;25.47;42.30;96778.28;4214121;28;5727;-87
2022/05/15 18:18:07;;;;;;;;;;;;;;;25.46;42.78;96802.94;4226646;28;5735;-86
2022/05/15 18:20:12;;;;;;;;;;;;;;;25.46;42.54;96809.16;4213763;28;5715;-71
2022/05/15 18:22:16;;;;;;;;;;;;;;;25.45;42.55;96810.25;4208177;28;5704;-75
2022/05/15 18:24:19;;;;;;;;;;;;;;;25.42;42.53;96810.84;4205235;28;5766;-71
2022/05/15 18:26:24;;;;;;;;;;;;;;;25.39;42.30;96822.25;4201662;28;5712;-73
2022/05/15 18:28:27;;;;;;;;;;;;;;;25.35;42.87;96825.78;4211091;28;5861;-70
2022/05/15 18:30:32;;;;;;;;;;;;;;;25.33;42.67;96833.41;4212330;28;6412;-77
2022/05/15 18:32:36;;;;;;;;;;;;;;;25.32;43.19;96843.41;4209811;28;5760;-75
2022/05/15 18:34:39;;;;;;;;;;;;;;;25.29;42.89;96827.75;4214363;28;5798;-78
2022/05/15 18:36:42;;;;;;;;;;;;;;;25.26;43.31;96839.16;4213789;28;7668;-70
2022/05/15 18:38:46;;;;;;;;;;;;;;;25.23;43.47;96834.31;4211711;28;5731;-70
2022/05/15 18:40:49;;;;;;;;;;;;;;;25.22;43.64;96840.81;4213237;28;5801;-72
2022/05/15 18:42:54;;;;;;;;;;;;;;;25.17;43.51;96830.84;4205559;28;7723;-74
2022/05/15 18:44:57;;;;;;;;;;;;;;;25.14;43.97;96841.41;4209371;28;5736;-73